sensor_id;sensor_type;location;lat;lon;timestamp;pressure;altitude;pressure_sealevel;temperature
54746;BMP180;40640;48.130;11.356;2023-03-17T00:03:21;95477.00;;;6.40
54746;BMP180;40640;48.130;11.356;2023-03-17T00:07:25;95469.00;;;6.40
54746;BMP180;40640;48.130;11.356;2023-03-17T00:11:29;95466.00;;;6.40
54746;BMP180;40640;48.130;11.356;2023-03-17T00:15:32;95464.00;;;6.30
54746;BMP180;40640;48.130;11.356;2023-03-17T00:19:35;95450.00;;;6.30
54746;BMP180;40640;48.130;11.356;2023-03-17T00:23:38;95462.00;;;6.30
54746;BMP180;40640;48.130;11.356;2023-03-17T00:27:42;95446.00;;;5.90
54746;BMP180;40640;48.130;11.356;2023-03-17T00:31:45;95444.00;;;5.50
54746;BMP180;40640;48.130;11.356;2023-03-17T00:35:48;95441.00;;;5.60
54746;BMP180;40640;48.130;11.356;2023-03-17T00:39:51;95431.00;;;5.40
54746;BMP180;40640;48.130;11.356;2023-03-17T00:43:56;95434.00;;;5.30
54746;BMP180;40640;48.130;11.356;2023-03-17T00:47:59;95429.00;;;5.40
54746;BMP180;40640;48.130;11.356;2023-03-17T00:52:02;95438.00;;;5.60
54746;BMP180;40640;48.130;11.356;2023-03-17T00:56:10;95434.00;;;5.70
54746;BMP180;40640;48.130;11.356;2023-03-17T01:00:22;95431.00;;;5.80
54746;BMP180;40640;48.130;11.356;2023-03-17T01:04:26;95417.00;;;5.80
54746;BMP180;40640;48.130;11.356;2023-03-17T01:08:29;95420.00;;;5.90
54746;BMP180;40640;48.130;11.356;2023-03-17T01:12:32;95429.00;;;5.90
54746;BMP180;40640;48.130;11.356;2023-03-17T01:16:37;95425.00;;;5.70
54746;BMP180;40640;48.130;11.356;2023-03-17T01:20:41;95412.00;;;5.60
54746;BMP180;40640;48.130;11.356;2023-03-17T01:24:45;95403.00;;;5.50
54746;BMP180;40640;48.130;11.356;2023-03-17T01:28:48;95395.00;;;5.20
54746;BMP180;40640;48.130;11.356;2023-03-17T01:32:53;95390.00;;;5.30
54746;BMP180;40640;48.130;11.356;2023-03-17T01:36:56;95381.00;;;5.00
54746;BMP180;40640;48.130;11.356;2023-03-17T01:41:00;95380.00;;;4.90
54746;BMP180;40640;48.130;11.356;2023-03-17T01:45:06;95368.00;;;4.70
54746;BMP180;40640;48.130;11.356;2023-03-17T01:49:16;95355.00;;;4.70
54746;BMP180;40640;48.130;11.356;2023-03-17T01:53:21;95364.00;;;4.90
54746;BMP180;40640;48.130;11.356;2023-03-17T01:57:27;95358.00;;;4.90
54746;BMP180;40640;48.130;11.356;2023-03-17T02:01:35;95366.00;;;5.00
54746;BMP180;40640;48.130;11.356;2023-03-17T02:05:40;95346.00;;;4.80
54746;BMP180;40640;48.130;11.356;2023-03-17T02:09:43;95340.00;;;4.80
54746;BMP180;40640;48.130;11.356;2023-03-17T02:13:46;95326.00;;;4.60
54746;BMP180;40640;48.130;11.356;2023-03-17T02:17:49;95309.00;;;4.60
54746;BMP180;40640;48.130;11.356;2023-03-17T02:21:54;95311.00;;;4.50
54746;BMP180;40640;48.130;11.356;2023-03-17T02:25:58;95300.00;;;4.40
54746;BMP180;40640;48.130;11.356;2023-03-17T02:30:01;95299.00;;;4.30
54746;BMP180;40640;48.130;11.356;2023-03-17T02:34:04;95306.00;;;4.40
54746;BMP180;40640;48.130;11.356;2023-03-17T02:38:08;95305.00;;;4.40
54746;BMP180;40640;48.130;11.356;2023-03-17T02:42:12;95290.00;;;4.40
54746;BMP180;40640;48.130;11.356;2023-03-17T02:46:15;95293.00;;;4.40
54746;BMP180;40640;48.130;11.356;2023-03-17T02:50:20;95292.00;;;4.40
54746;BMP180;40640;48.130;11.356;2023-03-17T02:54:25;95294.00;;;4.40
54746;BMP180;40640;48.130;11.356;2023-03-17T02:58:28;95294.00;;;4.50
54746;BMP180;40640;48.130;11.356;2023-03-17T03:02:30;95292.00;;;4.50
54746;BMP180;40640;48.130;11.356;2023-03-17T03:06:34;95291.00;;;4.40
54746;BMP180;40640;48.130;11.356;2023-03-17T03:10:39;95294.00;;;4.30
54746;BMP180;40640;48.130;11.356;2023-03-17T03:14:42;95284.00;;;4.10
54746;BMP180;40640;48.130;11.356;2023-03-17T03:18:45;95288.00;;;4.00
54746;BMP180;40640;48.130;11.356;2023-03-17T03:22:47;95281.00;;;4.00
54746;BMP180;40640;48.130;11.356;2023-03-17T03:26:52;95281.00;;;4.10
54746;BMP180;40640;48.130;11.356;2023-03-17T03:30:55;95285.00;;;4.20
54746;BMP180;40640;48.130;11.356;2023-03-17T03:34:58;95282.00;;;4.10
54746;BMP180;40640;48.130;11.356;2023-03-17T03:39:00;95277.00;;;4.10
54746;BMP180;40640;48.130;11.356;2023-03-17T03:43:05;95284.00;;;4.10
54746;BMP180;40640;48.130;11.356;2023-03-17T03:47:23;95291.00;;;4.10
54746;BMP180;40640;48.130;11.356;2023-03-17T03:51:26;95275.00;;;4.00
54746;BMP180;40640;48.130;11.356;2023-03-17T03:55:29;95271.00;;;4.00
54746;BMP180;40640;48.130;11.356;2023-03-17T03:59:33;95269.00;;;4.20
54746;BMP180;40640;48.130;11.356;2023-03-17T04:03:37;95260.00;;;4.30
54746;BMP180;40640;48.130;11.356;2023-03-17T04:07:40;95267.00;;;4.40
54746;BMP180;40640;48.130;11.356;2023-03-17T04:11:43;95264.00;;;4.50
54746;BMP180;40640;48.130;11.356;2023-03-17T04:15:47;95269.00;;;4.50
54746;BMP180;40640;48.130;11.356;2023-03-17T04:19:50;95267.00;;;4.50
54746;BMP180;40640;48.130;11.356;2023-03-17T04:23:53;95256.00;;;4.50
54746;BMP180;40640;48.130;11.356;2023-03-17T04:27:57;95260.00;;;4.60
54746;BMP180;40640;48.130;11.356;2023-03-17T04:32:01;95280.00;;;4.50
54746;BMP180;40640;48.130;11.356;2023-03-17T04:36:04;95283.00;;;4.60
54746;BMP180;40640;48.130;11.356;2023-03-17T04:40:09;95277.00;;;4.60
54746;BMP180;40640;48.130;11.356;2023-03-17T04:44:13;95283.00;;;4.60
54746;BMP180;40640;48.130;11.356;2023-03-17T04:48:17;95278.00;;;4.60
54746;BMP180;40640;48.130;11.356;2023-03-17T04:52:20;95277.00;;;4.50
54746;BMP180;40640;48.130;11.356;2023-03-17T04:56:23;95272.00;;;4.60
54746;BMP180;40640;48.130;11.356;2023-03-17T05:00:25;95265.00;;;4.50
54746;BMP180;40640;48.130;11.356;2023-03-17T05:04:30;95289.00;;;4.50
54746;BMP180;40640;48.130;11.356;2023-03-17T05:08:33;95281.00;;;4.40
54746;BMP180;40640;48.130;11.356;2023-03-17T05:12:36;95272.00;;;4.50
54746;BMP180;40640;48.130;11.356;2023-03-17T05:16:39;95276.00;;;4.50
54746;BMP180;40640;48.130;11.356;2023-03-17T05:20:43;95278.00;;;4.40
54746;BMP180;40640;48.130;11.356;2023-03-17T05:24:46;95275.00;;;4.50
54746;BMP180;40640;48.130;11.356;2023-03-17T05:28:49;95273.00;;;4.50
54746;BMP180;40640;48.130;11.356;2023-03-17T05:32:52;95275.00;;;4.40
54746;BMP180;40640;48.130;11.356;2023-03-17T05:36:56;95263.00;;;4.40
54746;BMP180;40640;48.130;11.356;2023-03-17T05:40:59;95261.00;;;4.20
54746;BMP180;40640;48.130;11.356;2023-03-17T05:45:03;95264.00;;;4.00
54746;BMP180;40640;48.130;11.356;2023-03-17T05:49:07;95251.00;;;4.00
54746;BMP180;40640;48.130;11.356;2023-03-17T05:53:11;95261.00;;;4.10
54746;BMP180;40640;48.130;11.356;2023-03-17T05:57:14;95256.00;;;4.30
54746;BMP180;40640;48.130;11.356;2023-03-17T06:01:17;95259.00;;;4.50
54746;BMP180;40640;48.130;11.356;2023-03-17T06:05:20;95259.00;;;4.60
54746;BMP180;40640;48.130;11.356;2023-03-17T06:09:24;95265.00;;;4.70
54746;BMP180;40640;48.130;11.356;2023-03-17T06:13:27;95252.00;;;4.80
54746;BMP180;40640;48.130;11.356;2023-03-17T06:17:30;95248.00;;;4.80
54746;BMP180;40640;48.130;11.356;2023-03-17T06:21:33;95252.00;;;4.90
54746;BMP180;40640;48.130;11.356;2023-03-17T06:25:37;95234.00;;;4.50
54746;BMP180;40640;48.130;11.356;2023-03-17T06:29:40;95247.00;;;4.70
54746;BMP180;40640;48.130;11.356;2023-03-17T06:33:43;95249.00;;;4.80
54746;BMP180;40640;48.130;11.356;2023-03-17T06:37:46;95262.00;;;4.90
54746;BMP180;40640;48.130;11.356;2023-03-17T06:41:50;95265.00;;;5.00
54746;BMP180;40640;48.130;11.356;2023-03-17T06:45:53;95259.00;;;5.30
54746;BMP180;40640;48.130;11.356;2023-03-17T06:49:56;95254.00;;;5.50
54746;BMP180;40640;48.130;11.356;2023-03-17T06:53:59;95258.00;;;5.70
54746;BMP180;40640;48.130;11.356;2023-03-17T06:58:03;95263.00;;;5.60
54746;BMP180;40640;48.130;11.356;2023-03-17T07:02:06;95265.00;;;6.20
54746;BMP180;40640;48.130;11.356;2023-03-17T07:06:09;95265.00;;;6.80
54746;BMP180;40640;48.130;11.356;2023-03-17T07:10:11;95275.00;;;7.20
54746;BMP180;40640;48.130;11.356;2023-03-17T07:14:19;95278.00;;;8.30
54746;BMP180;40640;48.130;11.356;2023-03-17T07:18:22;95283.00;;;8.70
54746;BMP180;40640;48.130;11.356;2023-03-17T07:22:24;95284.00;;;9.80
54746;BMP180;40640;48.130;11.356;2023-03-17T07:26:27;95295.00;;;11.00
54746;BMP180;40640;48.130;11.356;2023-03-17T07:30:31;95318.00;;;12.50
54746;BMP180;40640;48.130;11.356;2023-03-17T07:34:34;95317.00;;;14.10
54746;BMP180;40640;48.130;11.356;2023-03-17T07:38:37;95323.00;;;15.30
54746;BMP180;40640;48.130;11.356;2023-03-17T07:42:40;95326.00;;;16.90
54746;BMP180;40640;48.130;11.356;2023-03-17T07:46:45;95332.00;;;18.30
54746;BMP180;40640;48.130;11.356;2023-03-17T07:50:48;95327.00;;;19.50
54746;BMP180;40640;48.130;11.356;2023-03-17T07:54:51;95334.00;;;20.60
54746;BMP180;40640;48.130;11.356;2023-03-17T07:58:54;95343.00;;;21.90
54746;BMP180;40640;48.130;11.356;2023-03-17T08:03:00;95351.00;;;22.60
54746;BMP180;40640;48.130;11.356;2023-03-17T08:07:11;95353.00;;;23.40
54746;BMP180;40640;48.130;11.356;2023-03-17T08:11:15;95346.00;;;24.10
54746;BMP180;40640;48.130;11.356;2023-03-17T08:15:18;95353.00;;;25.20
54746;BMP180;40640;48.130;11.356;2023-03-17T08:19:23;95350.00;;;25.90
54746;BMP180;40640;48.130;11.356;2023-03-17T08:23:26;95350.00;;;27.40
54746;BMP180;40640;48.130;11.356;2023-03-17T08:27:29;95335.00;;;28.20
54746;BMP180;40640;48.130;11.356;2023-03-17T08:31:34;95324.00;;;28.90
54746;BMP180;40640;48.130;11.356;2023-03-17T08:35:40;95342.00;;;29.80
54746;BMP180;40640;48.130;11.356;2023-03-17T08:39:44;95350.00;;;30.50
54746;BMP180;40640;48.130;11.356;2023-03-17T08:43:47;95349.00;;;30.70
54746;BMP180;40640;48.130;11.356;2023-03-17T08:47:50;95361.00;;;31.50
54746;BMP180;40640;48.130;11.356;2023-03-17T08:51:55;95362.00;;;32.10
54746;BMP180;40640;48.130;11.356;2023-03-17T08:55:58;95369.00;;;32.90
54746;BMP180;40640;48.130;11.356;2023-03-17T09:00:01;95368.00;;;32.50
54746;BMP180;40640;48.130;11.356;2023-03-17T09:04:10;95354.00;;;32.80
54746;BMP180;40640;48.130;11.356;2023-03-17T09:08:14;95354.00;;;32.40
54746;BMP180;40640;48.130;11.356;2023-03-17T09:12:17;95351.00;;;32.40
54746;BMP180;40640;48.130;11.356;2023-03-17T09:16:20;95346.00;;;32.40
54746;BMP180;40640;48.130;11.356;2023-03-17T09:20:24;95353.00;;;31.60
54746;BMP180;40640;48.130;11.356;2023-03-17T09:24:28;95338.00;;;31.10
54746;BMP180;40640;48.130;11.356;2023-03-17T09:28:32;95345.00;;;31.30
54746;BMP180;40640;48.130;11.356;2023-03-17T09:32:35;95336.00;;;31.20
54746;BMP180;40640;48.130;11.356;2023-03-17T09:36:38;95342.00;;;31.30
54746;BMP180;40640;48.130;11.356;2023-03-17T09:40:47;95342.00;;;31.60
54746;BMP180;40640;48.130;11.356;2023-03-17T09:45:04;95344.00;;;32.00
54746;BMP180;40640;48.130;11.356;2023-03-17T09:49:12;95340.00;;;32.30
54746;BMP180;40640;48.130;11.356;2023-03-17T09:53:20;95355.00;;;33.00
54746;BMP180;40640;48.130;11.356;2023-03-17T09:57:27;95337.00;;;33.40
54746;BMP180;40640;48.130;11.356;2023-03-17T10:01:31;95346.00;;;33.40
54746;BMP180;40640;48.130;11.356;2023-03-17T10:05:34;95343.00;;;33.00
54746;BMP180;40640;48.130;11.356;2023-03-17T10:09:40;95338.00;;;32.10
54746;BMP180;40640;48.130;11.356;2023-03-17T10:13:53;95331.00;;;32.60
54746;BMP180;40640;48.130;11.356;2023-03-17T10:17:59;95328.00;;;32.70
54746;BMP180;40640;48.130;11.356;2023-03-17T10:22:04;95333.00;;;32.50
54746;BMP180;40640;48.130;11.356;2023-03-17T10:26:16;95337.00;;;32.80
54746;BMP180;40640;48.130;11.356;2023-03-17T10:30:29;95344.00;;;31.90
54746;BMP180;40640;48.130;11.356;2023-03-17T10:34:35;95338.00;;;31.30
54746;BMP180;40640;48.130;11.356;2023-03-17T10:38:40;95333.00;;;30.90
54746;BMP180;40640;48.130;11.356;2023-03-17T10:42:45;95326.00;;;32.50
54746;BMP180;40640;48.130;11.356;2023-03-17T10:46:54;95329.00;;;33.60
54746;BMP180;40640;48.130;11.356;2023-03-17T10:51:04;95332.00;;;33.50
54746;BMP180;40640;48.130;11.356;2023-03-17T10:55:12;95329.00;;;32.70
54746;BMP180;40640;48.130;11.356;2023-03-17T10:59:17;95328.00;;;33.40
54746;BMP180;40640;48.130;11.356;2023-03-17T11:03:25;95320.00;;;34.70
54746;BMP180;40640;48.130;11.356;2023-03-17T11:07:35;95327.00;;;35.20
54746;BMP180;40640;48.130;11.356;2023-03-17T11:11:44;95322.00;;;35.30
54746;BMP180;40640;48.130;11.356;2023-03-17T11:15:51;95321.00;;;35.10
54746;BMP180;40640;48.130;11.356;2023-03-17T11:20:02;95317.00;;;34.30
54746;BMP180;40640;48.130;11.356;2023-03-17T11:24:13;95301.00;;;33.30
54746;BMP180;40640;48.130;11.356;2023-03-17T11:28:18;95303.00;;;31.80
54746;BMP180;40640;48.130;11.356;2023-03-17T11:32:26;95305.00;;;31.50
54746;BMP180;40640;48.130;11.356;2023-03-17T11:36:42;95298.00;;;32.00
54746;BMP180;40640;48.130;11.356;2023-03-17T11:41:00;95293.00;;;31.80
54746;BMP180;40640;48.130;11.356;2023-03-17T11:45:16;95281.00;;;32.90
54746;BMP180;40640;48.130;11.356;2023-03-17T11:49:25;95280.00;;;33.10
54746;BMP180;40640;48.130;11.356;2023-03-17T11:53:52;95278.00;;;33.00
54746;BMP180;40640;48.130;11.356;2023-03-17T11:57:59;95286.00;;;32.90
54746;BMP180;40640;48.130;11.356;2023-03-17T12:02:09;95279.00;;;33.10
54746;BMP180;40640;48.130;11.356;2023-03-17T12:06:18;95263.00;;;34.20
54746;BMP180;40640;48.130;11.356;2023-03-17T12:10:25;95269.00;;;35.30
54746;BMP180;40640;48.130;11.356;2023-03-17T12:14:34;95261.00;;;35.20
54746;BMP180;40640;48.130;11.356;2023-03-17T12:18:46;95265.00;;;34.60
54746;BMP180;40640;48.130;11.356;2023-03-17T12:22:54;95257.00;;;34.60
54746;BMP180;40640;48.130;11.356;2023-03-17T12:27:02;95258.00;;;34.40
54746;BMP180;40640;48.130;11.356;2023-03-17T12:31:11;95251.00;;;33.30
54746;BMP180;40640;48.130;11.356;2023-03-17T12:35:24;95251.00;;;32.80
54746;BMP180;40640;48.130;11.356;2023-03-17T12:39:30;95247.00;;;33.00
54746;BMP180;40640;48.130;11.356;2023-03-17T12:43:45;95251.00;;;32.50
54746;BMP180;40640;48.130;11.356;2023-03-17T12:48:04;95244.00;;;32.40
54746;BMP180;40640;48.130;11.356;2023-03-17T12:52:33;95249.00;;;32.20
54746;BMP180;40640;48.130;11.356;2023-03-17T12:56:42;95251.00;;;31.80
54746;BMP180;40640;48.130;11.356;2023-03-17T13:00:49;95241.00;;;31.00
54746;BMP180;40640;48.130;11.356;2023-03-17T13:04:58;95234.00;;;30.60
54746;BMP180;40640;48.130;11.356;2023-03-17T13:09:33;95226.00;;;29.80
54746;BMP180;40640;48.130;11.356;2023-03-17T13:13:43;95222.00;;;29.40
54746;BMP180;40640;48.130;11.356;2023-03-17T13:17:47;95227.00;;;28.10
54746;BMP180;40640;48.130;11.356;2023-03-17T13:21:57;95226.00;;;27.70
54746;BMP180;40640;48.130;11.356;2023-03-17T13:26:23;95221.00;;;27.30
54746;BMP180;40640;48.130;11.356;2023-03-17T13:30:55;95219.00;;;26.30
54746;BMP180;40640;48.130;11.356;2023-03-17T13:35:18;95223.00;;;25.80
54746;BMP180;40640;48.130;11.356;2023-03-17T13:44:10;95213.00;;;25.50
54746;BMP180;40640;48.130;11.356;2023-03-17T13:48:33;95208.00;;;25.00
54746;BMP180;40640;48.130;11.356;2023-03-17T13:52:41;95208.00;;;24.70
54746;BMP180;40640;48.130;11.356;2023-03-17T13:56:46;95202.00;;;24.30
54746;BMP180;40640;48.130;11.356;2023-03-17T14:00:58;95192.00;;;23.90
54746;BMP180;40640;48.130;11.356;2023-03-17T14:05:03;95194.00;;;23.80
54746;BMP180;40640;48.130;11.356;2023-03-17T14:09:14;95186.00;;;23.60
54746;BMP180;40640;48.130;11.356;2023-03-17T14:13:23;95187.00;;;23.70
54746;BMP180;40640;48.130;11.356;2023-03-17T14:17:31;95185.00;;;23.40
54746;BMP180;40640;48.130;11.356;2023-03-17T14:21:34;95179.00;;;23.20
54746;BMP180;40640;48.130;11.356;2023-03-17T14:25:38;95180.00;;;23.20
54746;BMP180;40640;48.130;11.356;2023-03-17T14:29:41;95178.00;;;22.80
54746;BMP180;40640;48.130;11.356;2023-03-17T14:33:45;95174.00;;;22.50
54746;BMP180;40640;48.130;11.356;2023-03-17T14:37:49;95168.00;;;22.30
54746;BMP180;40640;48.130;11.356;2023-03-17T14:41:57;95151.00;;;22.10
54746;BMP180;40640;48.130;11.356;2023-03-17T14:46:01;95153.00;;;21.90
54746;BMP180;40640;48.130;11.356;2023-03-17T14:50:14;95155.00;;;21.80
54746;BMP180;40640;48.130;11.356;2023-03-17T14:54:19;95143.00;;;22.00
54746;BMP180;40640;48.130;11.356;2023-03-17T14:58:25;95142.00;;;22.00
54746;BMP180;40640;48.130;11.356;2023-03-17T15:02:31;95142.00;;;22.00
54746;BMP180;40640;48.130;11.356;2023-03-17T15:06:46;95135.00;;;22.00
54746;BMP180;40640;48.130;11.356;2023-03-17T15:10:49;95128.00;;;21.90
54746;BMP180;40640;48.130;11.356;2023-03-17T15:14:54;95130.00;;;21.90
54746;BMP180;40640;48.130;11.356;2023-03-17T15:19:04;95128.00;;;21.80
54746;BMP180;40640;48.130;11.356;2023-03-17T15:23:15;95136.00;;;21.70
54746;BMP180;40640;48.130;11.356;2023-03-17T15:27:18;95125.00;;;21.60
54746;BMP180;40640;48.130;11.356;2023-03-17T15:31:21;95122.00;;;21.50
54746;BMP180;40640;48.130;11.356;2023-03-17T15:35:29;95119.00;;;21.50
54746;BMP180;40640;48.130;11.356;2023-03-17T15:39:33;95122.00;;;21.30
54746;BMP180;40640;48.130;11.356;2023-03-17T15:43:36;95111.00;;;21.30
54746;BMP180;40640;48.130;11.356;2023-03-17T15:47:39;95114.00;;;21.20
54746;BMP180;40640;48.130;11.356;2023-03-17T15:51:42;95108.00;;;21.10
54746;BMP180;40640;48.130;11.356;2023-03-17T15:55:46;95114.00;;;21.10
54746;BMP180;40640;48.130;11.356;2023-03-17T15:59:50;95102.00;;;20.90
54746;BMP180;40640;48.130;11.356;2023-03-17T16:03:53;95107.00;;;20.70
54746;BMP180;40640;48.130;11.356;2023-03-17T16:07:56;95097.00;;;20.60
54746;BMP180;40640;48.130;11.356;2023-03-17T16:12:00;95100.00;;;20.40
54746;BMP180;40640;48.130;11.356;2023-03-17T16:16:03;95099.00;;;20.20
54746;BMP180;40640;48.130;11.356;2023-03-17T16:20:21;95107.00;;;20.00
54746;BMP180;40640;48.130;11.356;2023-03-17T16:24:25;95094.00;;;19.70
54746;BMP180;40640;48.130;11.356;2023-03-17T16:28:31;95087.00;;;19.20
54746;BMP180;40640;48.130;11.356;2023-03-17T16:32:34;95081.00;;;18.90
54746;BMP180;40640;48.130;11.356;2023-03-17T16:36:37;95075.00;;;18.60
54746;BMP180;40640;48.130;11.356;2023-03-17T16:40:40;95093.00;;;18.30
54746;BMP180;40640;48.130;11.356;2023-03-17T16:44:45;95085.00;;;17.90
54746;BMP180;40640;48.130;11.356;2023-03-17T16:48:49;95091.00;;;17.90
54746;BMP180;40640;48.130;11.356;2023-03-17T16:52:52;95092.00;;;17.70
54746;BMP180;40640;48.130;11.356;2023-03-17T16:56:55;95089.00;;;17.60
54746;BMP180;40640;48.130;11.356;2023-03-17T17:01:01;95102.00;;;17.50
54746;BMP180;40640;48.130;11.356;2023-03-17T17:05:08;95101.00;;;17.40
54746;BMP180;40640;48.130;11.356;2023-03-17T17:09:14;95099.00;;;17.20
54746;BMP180;40640;48.130;11.356;2023-03-17T17:13:17;95098.00;;;17.00
54746;BMP180;40640;48.130;11.356;2023-03-17T17:17:21;95101.00;;;17.10
54746;BMP180;40640;48.130;11.356;2023-03-17T17:21:25;95101.00;;;17.10
54746;BMP180;40640;48.130;11.356;2023-03-17T17:25:28;95099.00;;;17.00
54746;BMP180;40640;48.130;11.356;2023-03-17T17:29:31;95088.00;;;17.00
54746;BMP180;40640;48.130;11.356;2023-03-17T17:33:36;95093.00;;;16.90
54746;BMP180;40640;48.130;11.356;2023-03-17T17:37:39;95093.00;;;16.80
54746;BMP180;40640;48.130;11.356;2023-03-17T17:41:42;95083.00;;;16.80
54746;BMP180;40640;48.130;11.356;2023-03-17T17:45:45;95083.00;;;16.70
54746;BMP180;40640;48.130;11.356;2023-03-17T17:49:51;95093.00;;;16.60
54746;BMP180;40640;48.130;11.356;2023-03-17T17:53:54;95096.00;;;16.50
54746;BMP180;40640;48.130;11.356;2023-03-17T17:57:57;95099.00;;;16.40
54746;BMP180;40640;48.130;11.356;2023-03-17T18:01:59;95098.00;;;16.20
54746;BMP180;40640;48.130;11.356;2023-03-17T18:06:05;95103.00;;;16.10
54746;BMP180;40640;48.130;11.356;2023-03-17T18:10:13;95099.00;;;16.00
54746;BMP180;40640;48.130;11.356;2023-03-17T18:14:17;95107.00;;;15.80
54746;BMP180;40640;48.130;11.356;2023-03-17T18:18:20;95116.00;;;15.80
54746;BMP180;40640;48.130;11.356;2023-03-17T18:22:24;95107.00;;;15.70
54746;BMP180;40640;48.130;11.356;2023-03-17T18:26:27;95104.00;;;15.60
54746;BMP180;40640;48.130;11.356;2023-03-17T18:30:30;95114.00;;;15.50
54746;BMP180;40640;48.130;11.356;2023-03-17T18:34:38;95120.00;;;15.40
54746;BMP180;40640;48.130;11.356;2023-03-17T18:38:45;95119.00;;;15.20
54746;BMP180;40640;48.130;11.356;2023-03-17T18:42:48;95118.00;;;15.30
54746;BMP180;40640;48.130;11.356;2023-03-17T18:46:50;95119.00;;;15.20
54746;BMP180;40640;48.130;11.356;2023-03-17T18:50:53;95115.00;;;14.80
54746;BMP180;40640;48.130;11.356;2023-03-17T18:54:58;95118.00;;;14.60
54746;BMP180;40640;48.130;11.356;2023-03-17T18:59:01;95112.00;;;14.30
54746;BMP180;40640;48.130;11.356;2023-03-17T19:03:04;95122.00;;;14.10
54746;BMP180;40640;48.130;11.356;2023-03-17T19:07:06;95126.00;;;14.00
54746;BMP180;40640;48.130;11.356;2023-03-17T19:11:12;95125.00;;;13.90
54746;BMP180;40640;48.130;11.356;2023-03-17T19:15:15;95131.00;;;13.80
54746;BMP180;40640;48.130;11.356;2023-03-17T19:19:18;95120.00;;;13.70
54746;BMP180;40640;48.130;11.356;2023-03-17T19:23:22;95115.00;;;13.60
54746;BMP180;40640;48.130;11.356;2023-03-17T19:27:26;95107.00;;;13.60
54746;BMP180;40640;48.130;11.356;2023-03-17T19:31:29;95127.00;;;13.60
54746;BMP180;40640;48.130;11.356;2023-03-17T19:35:32;95130.00;;;13.30
54746;BMP180;40640;48.130;11.356;2023-03-17T19:39:35;95127.00;;;13.20
54746;BMP180;40640;48.130;11.356;2023-03-17T19:43:39;95123.00;;;13.10
54746;BMP180;40640;48.130;11.356;2023-03-17T19:47:42;95129.00;;;12.90
54746;BMP180;40640;48.130;11.356;2023-03-17T19:51:45;95114.00;;;12.90
54746;BMP180;40640;48.130;11.356;2023-03-17T19:55:49;95117.00;;;12.90
54746;BMP180;40640;48.130;11.356;2023-03-17T19:59:53;95118.00;;;12.70
54746;BMP180;40640;48.130;11.356;2023-03-17T20:03:56;95115.00;;;12.80
54746;BMP180;40640;48.130;11.356;2023-03-17T20:07:59;95120.00;;;12.70
54746;BMP180;40640;48.130;11.356;2023-03-17T20:12:03;95117.00;;;12.50
54746;BMP180;40640;48.130;11.356;2023-03-17T20:16:08;95124.00;;;12.30
54746;BMP180;40640;48.130;11.356;2023-03-17T20:20:12;95111.00;;;12.20
54746;BMP180;40640;48.130;11.356;2023-03-17T20:24:15;95123.00;;;12.30
54746;BMP180;40640;48.130;11.356;2023-03-17T20:28:19;95126.00;;;12.50
54746;BMP180;40640;48.130;11.356;2023-03-17T20:32:23;95130.00;;;12.30
54746;BMP180;40640;48.130;11.356;2023-03-17T20:36:28;95131.00;;;12.20
54746;BMP180;40640;48.130;11.356;2023-03-17T20:40:30;95131.00;;;12.20
54746;BMP180;40640;48.130;11.356;2023-03-17T20:44:34;95127.00;;;12.10
54746;BMP180;40640;48.130;11.356;2023-03-17T20:48:38;95130.00;;;12.00
54746;BMP180;40640;48.130;11.356;2023-03-17T20:52:41;95130.00;;;11.90
54746;BMP180;40640;48.130;11.356;2023-03-17T20:56:44;95138.00;;;11.80
54746;BMP180;40640;48.130;11.356;2023-03-17T21:00:49;95157.00;;;11.70
54746;BMP180;40640;48.130;11.356;2023-03-17T21:04:53;95152.00;;;11.10
54746;BMP180;40640;48.130;11.356;2023-03-17T21:08:56;95152.00;;;10.80
54746;BMP180;40640;48.130;11.356;2023-03-17T21:12:59;95156.00;;;10.80
54746;BMP180;40640;48.130;11.356;2023-03-17T21:17:02;95150.00;;;10.80
54746;BMP180;40640;48.130;11.356;2023-03-17T21:21:06;95152.00;;;10.80
54746;BMP180;40640;48.130;11.356;2023-03-17T21:25:09;95153.00;;;10.80
54746;BMP180;40640;48.130;11.356;2023-03-17T21:29:12;95148.00;;;10.80
54746;BMP180;40640;48.130;11.356;2023-03-17T21:33:15;95158.00;;;10.90
54746;BMP180;40640;48.130;11.356;2023-03-17T21:37:19;95148.00;;;10.90
54746;BMP180;40640;48.130;11.356;2023-03-17T21:41:28;95177.00;;;10.90
54746;BMP180;40640;48.130;11.356;2023-03-17T21:45:31;95161.00;;;10.80
54746;BMP180;40640;48.130;11.356;2023-03-17T21:49:34;95162.00;;;10.70
54746;BMP180;40640;48.130;11.356;2023-03-17T21:53:38;95167.00;;;10.80
54746;BMP180;40640;48.130;11.356;2023-03-17T21:57:41;95171.00;;;10.70
54746;BMP180;40640;48.130;11.356;2023-03-17T22:01:44;95162.00;;;10.60
54746;BMP180;40640;48.130;11.356;2023-03-17T22:05:47;95154.00;;;10.50
54746;BMP180;40640;48.130;11.356;2023-03-17T22:09:53;95166.00;;;10.50
54746;BMP180;40640;48.130;11.356;2023-03-17T22:13:57;95172.00;;;10.40
54746;BMP180;40640;48.130;11.356;2023-03-17T22:18:00;95172.00;;;10.40
54746;BMP180;40640;48.130;11.356;2023-03-17T22:22:03;95170.00;;;10.50
54746;BMP180;40640;48.130;11.356;2023-03-17T22:26:10;95166.00;;;10.40
54746;BMP180;40640;48.130;11.356;2023-03-17T22:30:14;95167.00;;;10.30
54746;BMP180;40640;48.130;11.356;2023-03-17T22:34:17;95177.00;;;10.20
54746;BMP180;40640;48.130;11.356;2023-03-17T22:38:20;95177.00;;;10.20
54746;BMP180;40640;48.130;11.356;2023-03-17T22:42:26;95172.00;;;10.30
54746;BMP180;40640;48.130;11.356;2023-03-17T22:46:29;95180.00;;;10.30
54746;BMP180;40640;48.130;11.356;2023-03-17T22:50:32;95182.00;;;10.00
54746;BMP180;40640;48.130;11.356;2023-03-17T22:54:35;95186.00;;;9.90
54746;BMP180;40640;48.130;11.356;2023-03-17T22:58:39;95196.00;;;10.00
54746;BMP180;40640;48.130;11.356;2023-03-17T23:02:43;95191.00;;;9.70
54746;BMP180;40640;48.130;11.356;2023-03-17T23:06:46;95192.00;;;9.70
54746;BMP180;40640;48.130;11.356;2023-03-17T23:10:50;95190.00;;;9.60
54746;BMP180;40640;48.130;11.356;2023-03-17T23:14:55;95195.00;;;9.60
54746;BMP180;40640;48.130;11.356;2023-03-17T23:18:58;95195.00;;;9.50
54746;BMP180;40640;48.130;11.356;2023-03-17T23:23:01;95208.00;;;9.50
54746;BMP180;40640;48.130;11.356;2023-03-17T23:27:04;95191.00;;;9.30